createdAt,value
2018-05-06T00:01:41.096Z,14.50
2018-05-06T00:04:08.603Z,14.40
2018-05-06T00:06:36.121Z,14.50
2018-05-06T00:09:03.660Z,14.30
2018-05-06T00:11:31.974Z,14.10
2018-05-06T00:13:59.558Z,14.10
2018-05-06T00:16:27.087Z,14.20
2018-05-06T00:18:55.102Z,14.20
2018-05-06T00:21:23.410Z,14.00
2018-05-06T00:23:50.933Z,14.00
2018-05-06T00:26:19.256Z,13.80
2018-05-06T00:28:46.803Z,13.80
2018-05-06T00:31:15.167Z,13.90
2018-05-06T00:33:42.762Z,13.90
2018-05-06T00:36:10.230Z,13.80
2018-05-06T00:38:37.746Z,13.90
2018-05-06T00:41:05.296Z,13.90
2018-05-06T00:43:33.615Z,13.90
2018-05-06T00:46:01.164Z,13.90
2018-05-06T00:48:28.726Z,13.80
2018-05-06T00:50:56.285Z,13.80
2018-05-06T00:53:23.844Z,13.80
2018-05-06T00:55:51.410Z,13.90
2018-05-06T00:58:18.953Z,13.60
2018-05-06T01:00:46.485Z,13.60
2018-05-06T01:03:14.044Z,13.50
2018-05-06T01:05:42.338Z,13.40
2018-05-06T01:08:09.880Z,13.40
2018-05-06T01:10:37.432Z,13.30
2018-05-06T01:13:05.745Z,13.20
2018-05-06T01:15:33.270Z,13.20
2018-05-06T01:18:00.824Z,13.20
2018-05-06T01:20:29.098Z,13.10
2018-05-06T01:22:57.412Z,12.90
2018-05-06T01:25:24.960Z,12.90
2018-05-06T01:27:52.497Z,12.90
2018-05-06T01:30:20.776Z,12.90
2018-05-06T01:32:49.100Z,12.80
2018-05-06T01:35:16.618Z,12.80
2018-05-06T01:37:44.896Z,12.90
2018-05-06T01:40:13.175Z,12.70
2018-05-06T01:42:41.464Z,12.60
2018-05-06T01:45:08.996Z,12.60
2018-05-06T01:47:36.551Z,12.60
2018-05-06T01:50:04.837Z,12.50
2018-05-06T01:52:33.120Z,12.50
2018-05-06T01:55:01.403Z,12.60
2018-05-06T01:57:28.946Z,12.60
2018-05-06T01:59:56.497Z,12.70
2018-05-06T02:02:24.829Z,13.20
2018-05-06T02:04:52.386Z,13.20
2018-05-06T02:07:19.926Z,13.70
2018-05-06T02:09:47.456Z,13.90
2018-05-06T02:12:15.011Z,13.60
2018-05-06T02:14:43.323Z,13.60
2018-05-06T02:17:10.867Z,13.50
2018-05-06T02:19:38.444Z,13.60
2018-05-06T02:22:05.988Z,13.60
2018-05-06T02:24:33.536Z,13.60
2018-05-06T02:27:01.863Z,13.60
2018-05-06T02:29:29.404Z,13.60
2018-05-06T02:31:56.968Z,13.60
2018-05-06T02:34:24.525Z,13.30
2018-05-06T02:36:52.082Z,13.30
2018-05-06T02:39:19.633Z,13.10
2018-05-06T02:41:47.192Z,13.10
2018-05-06T02:44:14.737Z,13.10
2018-05-06T02:46:42.292Z,12.90
2018-05-06T02:49:09.819Z,12.60
2018-05-06T02:51:37.334Z,12.50
2018-05-06T02:54:04.890Z,12.50
2018-05-06T02:56:32.423Z,12.30
2018-05-06T02:58:59.939Z,12.60
2018-05-06T03:01:27.485Z,12.60
2018-05-06T03:03:55.022Z,12.70
2018-05-06T03:06:22.542Z,12.70
2018-05-06T03:08:50.835Z,12.50
2018-05-06T03:11:18.346Z,12.50
2018-05-06T03:13:46.668Z,12.50
2018-05-06T03:16:14.214Z,12.50
2018-05-06T03:18:42.526Z,12.60
2018-05-06T03:21:10.083Z,12.60
2018-05-06T03:23:37.595Z,12.70
2018-05-06T03:26:05.891Z,12.30
2018-05-06T03:28:33.432Z,12.30
2018-05-06T03:31:00.984Z,12.20
2018-05-06T03:33:28.541Z,12.20
2018-05-06T03:35:56.133Z,12.10
2018-05-06T03:38:23.645Z,12.10
2018-05-06T03:40:51.190Z,12.30
2018-05-06T03:43:18.718Z,12.20
2018-05-06T03:45:46.267Z,12.20
2018-05-06T03:48:13.798Z,12.20
2018-05-06T03:50:41.381Z,12.20
2018-05-06T03:53:08.930Z,12.00
2018-05-06T03:55:37.244Z,11.80
2018-05-06T03:58:16.604Z,11.80
2018-05-06T04:00:44.157Z,11.70
2018-05-06T04:03:11.692Z,11.50
2018-05-06T04:05:39.255Z,11.50
2018-05-06T04:08:06.774Z,11.30
2018-05-06T04:10:35.751Z,11.20
2018-05-06T04:13:03.314Z,11.50
2018-05-06T04:15:31.622Z,11.50
2018-05-06T04:17:59.141Z,11.40
2018-05-06T04:20:26.680Z,11.60
2018-05-06T04:22:54.227Z,11.60
2018-05-06T04:25:21.792Z,11.70
2018-05-06T04:27:49.336Z,11.80
2018-05-06T04:30:16.878Z,11.70
2018-05-06T04:32:44.386Z,11.60
2018-05-06T04:35:11.919Z,11.60
2018-05-06T04:37:39.487Z,11.50
2018-05-06T04:40:07.043Z,11.60
2018-05-06T04:42:34.562Z,11.60
2018-05-06T04:45:02.092Z,11.50
2018-05-06T04:47:29.664Z,11.40
2018-05-06T04:49:57.234Z,11.60
2018-05-06T04:52:24.776Z,11.60
2018-05-06T04:54:52.291Z,11.80
2018-05-06T04:57:19.798Z,11.70
2018-05-06T04:59:48.108Z,11.80
2018-05-06T05:02:15.638Z,11.80
2018-05-06T05:04:43.195Z,11.90
2018-05-06T05:07:11.511Z,11.70
2018-05-06T05:09:39.125Z,11.70
2018-05-06T05:12:06.605Z,11.80
2018-05-06T05:14:34.150Z,11.80
2018-05-06T05:17:01.676Z,11.80
2018-05-06T05:19:29.212Z,11.80
2018-05-06T05:21:56.775Z,11.80
2018-05-06T05:24:24.327Z,11.90
2018-05-06T05:26:51.885Z,12.00
2018-05-06T05:29:19.446Z,12.10
2018-05-06T05:31:46.975Z,12.10
2018-05-06T05:34:14.499Z,12.10
2018-05-06T05:36:42.020Z,12.20
2018-05-06T05:39:09.547Z,12.30
2018-05-06T05:41:37.073Z,12.20
2018-05-06T05:44:04.618Z,12.20
2018-05-06T05:46:32.131Z,12.30
2018-05-06T05:48:59.708Z,12.20
2018-05-06T05:51:27.261Z,12.20
2018-05-06T05:53:54.780Z,12.10
2018-05-06T05:56:23.100Z,12.10
2018-05-06T05:58:50.895Z,12.10
2018-05-06T06:01:18.417Z,12.10
2018-05-06T06:03:45.943Z,12.20
2018-05-06T06:06:13.508Z,12.30
2018-05-06T06:08:41.046Z,12.40
2018-05-06T06:11:08.588Z,12.50
2018-05-06T06:13:36.131Z,12.60
2018-05-06T06:16:03.645Z,12.70
2018-05-06T06:18:31.160Z,12.80
2018-05-06T06:20:58.680Z,12.90
2018-05-06T06:23:26.207Z,13.10
2018-05-06T06:25:54.452Z,13.20
2018-05-06T06:28:22.010Z,13.20
2018-05-06T06:30:49.564Z,13.40
2018-05-06T06:33:17.098Z,13.70
2018-05-06T06:35:44.640Z,13.80
2018-05-06T06:38:12.229Z,13.90
2018-05-06T06:40:39.759Z,14.20
2018-05-06T06:43:07.323Z,14.40
2018-05-06T06:45:34.902Z,14.80
2018-05-06T06:48:02.462Z,15.10
2018-05-06T06:50:30.061Z,15.20
2018-05-06T06:52:57.607Z,15.40
2018-05-06T06:55:25.159Z,15.50
2018-05-06T06:57:52.708Z,15.60
2018-05-06T07:00:20.257Z,15.70
2018-05-06T07:02:47.809Z,15.70
2018-05-06T07:05:15.356Z,16.00
2018-05-06T07:07:42.884Z,16.10
2018-05-06T07:10:10.444Z,16.10
2018-05-06T07:12:38.765Z,16.30
2018-05-06T07:15:06.321Z,16.20
2018-05-06T07:17:33.852Z,16.30
2018-05-06T07:20:01.396Z,16.50
2018-05-06T07:22:30.582Z,16.80
2018-05-06T07:24:58.109Z,16.70
2018-05-06T07:27:25.677Z,16.90
2018-05-06T07:29:53.313Z,17.10
2018-05-06T07:32:20.789Z,17.00
2018-05-06T07:34:48.314Z,17.30
2018-05-06T07:37:15.841Z,17.50
2018-05-06T07:39:43.371Z,17.60
2018-05-06T07:42:10.924Z,17.70
2018-05-06T07:44:38.481Z,17.90
2018-05-06T07:47:05.999Z,17.90
2018-05-06T07:49:33.520Z,18.20
2018-05-06T07:52:01.067Z,18.20
2018-05-06T07:54:28.600Z,18.20
2018-05-06T07:56:56.142Z,17.90
2018-05-06T07:59:23.698Z,18.10
2018-05-06T08:01:51.255Z,18.40
2018-05-06T08:04:18.770Z,18.80
2018-05-06T08:06:46.282Z,18.90
2018-05-06T08:09:13.839Z,18.90
2018-05-06T08:11:41.387Z,18.80
2018-05-06T08:14:08.949Z,18.90
2018-05-06T08:16:36.501Z,19.40
2018-05-06T08:19:04.788Z,19.60
2018-05-06T08:21:32.340Z,19.60
2018-05-06T08:23:59.862Z,19.60
2018-05-06T08:26:27.377Z,19.80
2018-05-06T08:28:54.885Z,20.20
2018-05-06T08:31:22.411Z,20.00
2018-05-06T08:33:49.940Z,19.80
2018-05-06T08:36:17.493Z,20.20
2018-05-06T08:38:45.030Z,20.10
2018-05-06T08:41:13.348Z,20.50
2018-05-06T08:43:40.864Z,20.50
2018-05-06T08:46:08.416Z,20.80
2018-05-06T08:48:36.739Z,20.70
2018-05-06T08:51:04.263Z,20.70
2018-05-06T08:53:31.823Z,20.80
2018-05-06T08:56:00.147Z,20.80
2018-05-06T08:58:27.700Z,20.70
2018-05-06T09:00:55.229Z,20.80
2018-05-06T09:03:22.749Z,20.80
2018-05-06T09:05:50.277Z,20.40
2018-05-06T09:08:17.811Z,20.50
2018-05-06T09:10:45.351Z,21.00
2018-05-06T09:13:12.871Z,21.00
2018-05-06T09:15:40.395Z,21.10
2018-05-06T09:18:07.932Z,21.60
2018-05-06T09:20:35.473Z,21.70
2018-05-06T09:23:03.024Z,21.90
2018-05-06T09:25:30.601Z,21.80
2018-05-06T09:27:58.884Z,22.50
2018-05-06T09:30:27.194Z,22.40
2018-05-06T09:32:54.742Z,22.40
2018-05-06T09:35:22.278Z,22.60
2018-05-06T09:37:50.600Z,22.60
2018-05-06T09:40:18.175Z,22.60
2018-05-06T09:42:45.717Z,22.50
2018-05-06T09:45:13.263Z,22.70
2018-05-06T09:47:40.825Z,22.80
2018-05-06T09:50:08.342Z,22.80
2018-05-06T09:52:35.868Z,22.90
2018-05-06T09:55:03.399Z,22.90
2018-05-06T09:57:30.963Z,23.10
2018-05-06T09:59:58.511Z,23.60
2018-05-06T10:02:26.063Z,23.70
2018-05-06T10:04:53.632Z,23.70
2018-05-06T10:07:21.188Z,23.50
2018-05-06T10:09:48.746Z,23.40
2018-05-06T10:12:16.265Z,23.20
2018-05-06T10:14:43.839Z,23.40
2018-05-06T10:17:11.413Z,23.70
2018-05-06T10:19:38.944Z,23.90
2018-05-06T10:22:07.258Z,23.80
2018-05-06T10:24:34.819Z,23.80
2018-05-06T10:27:02.347Z,23.80
2018-05-06T10:29:30.736Z,23.80
2018-05-06T10:31:58.330Z,23.80
2018-05-06T10:34:25.876Z,23.90
2018-05-06T10:36:53.397Z,24.20
2018-05-06T10:39:21.692Z,24.40
2018-05-06T10:41:49.238Z,24.40
2018-05-06T10:44:16.877Z,24.20
2018-05-06T10:46:44.367Z,24.10
2018-05-06T10:49:11.997Z,24.80
2018-05-06T10:51:39.420Z,24.50
2018-05-06T10:54:06.940Z,24.50
2018-05-06T10:56:34.493Z,24.80
2018-05-06T10:59:02.057Z,24.60
2018-05-06T11:01:29.636Z,24.60
2018-05-06T11:03:57.277Z,24.60
2018-05-06T11:06:24.773Z,24.90
2018-05-06T11:08:52.307Z,24.60
2018-05-06T11:11:19.864Z,25.10
2018-05-06T11:13:47.373Z,24.70
2018-05-06T11:16:14.908Z,24.50
2018-05-06T11:18:42.414Z,24.50
2018-05-06T11:21:09.945Z,24.40
2018-05-06T11:23:37.583Z,23.90
2018-05-06T11:26:05.066Z,24.30
2018-05-06T11:28:32.614Z,24.40
2018-05-06T11:31:00.119Z,24.40
2018-05-06T11:33:27.696Z,24.60
2018-05-06T11:35:55.203Z,24.90
2018-05-06T11:38:22.731Z,25.00
2018-05-06T11:40:50.245Z,24.80
2018-05-06T11:43:17.747Z,24.60
2018-05-06T11:45:45.258Z,24.40
2018-05-06T11:48:12.864Z,25.10
2018-05-06T11:50:40.346Z,24.60
2018-05-06T11:53:07.857Z,24.70
2018-05-06T11:55:36.177Z,24.30
2018-05-06T11:58:03.705Z,24.30
2018-05-06T12:00:31.246Z,23.80
2018-05-06T12:03:00.768Z,24.70
2018-05-06T12:05:28.363Z,24.70
2018-05-06T12:07:55.920Z,25.10
2018-05-06T12:10:23.451Z,25.20
2018-05-06T12:12:51.029Z,24.90
2018-05-06T12:15:18.537Z,25.30
2018-05-06T12:17:46.090Z,25.10
2018-05-06T12:20:14.398Z,24.30
2018-05-06T12:22:42.677Z,24.50
2018-05-06T12:25:11.007Z,24.20
2018-05-06T12:27:38.667Z,24.20
2018-05-06T12:30:06.182Z,24.10
2018-05-06T12:32:33.747Z,24.00
2018-05-06T12:35:01.292Z,24.70
2018-05-06T12:37:29.988Z,25.10
2018-05-06T12:39:57.499Z,25.10
2018-05-06T12:42:25.060Z,25.40
2018-05-06T12:44:52.587Z,25.50
2018-05-06T12:47:20.119Z,25.50
2018-05-06T12:49:47.642Z,25.40
2018-05-06T12:52:15.205Z,24.70
2018-05-06T12:54:42.721Z,25.00
2018-05-06T12:57:10.234Z,24.60
2018-05-06T12:59:37.750Z,24.40
2018-05-06T13:02:05.276Z,24.30
2018-05-06T13:04:32.830Z,24.80
2018-05-06T13:07:00.374Z,24.90
2018-05-06T13:09:28.668Z,24.60
2018-05-06T13:11:56.228Z,24.50
2018-05-06T13:14:23.770Z,24.20
2018-05-06T13:16:52.097Z,24.30
2018-05-06T13:19:19.616Z,24.30
2018-05-06T13:21:47.143Z,24.10
2018-05-06T13:24:14.699Z,24.30
2018-05-06T13:26:42.222Z,24.30
2018-05-06T13:29:09.762Z,24.50
2018-05-06T13:31:37.294Z,24.60
2018-05-06T13:34:04.810Z,24.70
2018-05-06T13:36:32.349Z,24.50
2018-05-06T13:38:59.859Z,24.40
2018-05-06T13:41:27.380Z,24.80
2018-05-06T13:43:55.005Z,24.80
2018-05-06T13:46:22.500Z,24.90
2018-05-06T13:48:50.010Z,25.00
2018-05-06T13:51:18.331Z,25.00
2018-05-06T13:53:45.842Z,25.00
2018-05-06T13:56:14.117Z,24.90
2018-05-06T13:58:41.651Z,24.90
2018-05-06T14:01:09.197Z,25.10
2018-05-06T14:03:36.740Z,25.00
2018-05-06T14:06:04.270Z,24.80
2018-05-06T14:08:31.783Z,24.90
2018-05-06T14:10:59.315Z,24.70
2018-05-06T14:13:26.875Z,24.60
2018-05-06T14:15:54.441Z,24.80
2018-05-06T14:18:21.995Z,24.80
2018-05-06T14:20:50.352Z,24.60
2018-05-06T14:23:17.912Z,24.60
2018-05-06T14:25:45.456Z,24.70
2018-05-06T14:28:12.982Z,24.80
2018-05-06T14:30:40.525Z,24.70
2018-05-06T14:33:08.073Z,24.70
2018-05-06T14:35:35.617Z,24.80
2018-05-06T14:38:03.152Z,24.70
2018-05-06T14:40:30.662Z,24.60
2018-05-06T14:42:58.202Z,24.70
2018-05-06T14:45:25.751Z,24.60
2018-05-06T14:48:05.185Z,24.50
2018-05-06T14:50:32.711Z,24.60
2018-05-06T14:53:00.227Z,24.60
2018-05-06T14:55:27.838Z,24.70
2018-05-06T14:57:55.429Z,24.70
2018-05-06T15:00:22.942Z,24.60
2018-05-06T15:02:50.485Z,24.60
2018-05-06T15:05:18.770Z,24.80
2018-05-06T15:07:47.064Z,24.80
2018-05-06T15:10:14.589Z,24.80
2018-05-06T15:12:42.139Z,24.80
2018-05-06T15:15:09.641Z,24.80
2018-05-06T15:17:37.175Z,24.70
2018-05-06T15:20:04.732Z,24.60
2018-05-06T15:22:32.274Z,24.60
2018-05-06T15:24:59.798Z,24.70
2018-05-06T15:27:27.348Z,24.60
2018-05-06T15:29:54.900Z,24.70
2018-05-06T15:32:22.423Z,24.70
2018-05-06T15:34:49.942Z,24.70
2018-05-06T15:37:17.477Z,24.60
2018-05-06T15:39:45.000Z,24.40
2018-05-06T15:42:12.511Z,24.40
2018-05-06T15:44:40.883Z,24.40
2018-05-06T15:47:08.509Z,24.40
2018-05-06T15:49:36.816Z,24.40
2018-05-06T15:52:04.322Z,24.40
2018-05-06T15:54:31.846Z,24.40
2018-05-06T15:56:59.384Z,24.40
2018-05-06T15:59:26.932Z,24.30
2018-05-06T16:02:06.133Z,24.30
2018-05-06T16:04:33.670Z,24.40
2018-05-06T16:07:01.220Z,24.30
2018-05-06T16:09:28.773Z,24.20
2018-05-06T16:11:56.366Z,24.10
2018-05-06T16:14:23.831Z,24.20
2018-05-06T16:16:51.382Z,24.10
2018-05-06T16:19:18.935Z,24.10
2018-05-06T16:21:46.474Z,24.20
2018-05-06T16:24:14.038Z,24.10
2018-05-06T16:26:41.596Z,24.10
2018-05-06T16:29:09.149Z,24.00
2018-05-06T16:31:36.692Z,24.00
2018-05-06T16:34:04.308Z,24.10
2018-05-06T16:36:31.874Z,24.10
2018-05-06T16:38:59.423Z,24.20
2018-05-06T16:41:26.968Z,24.50
2018-05-06T16:43:54.492Z,24.60
2018-05-06T16:46:22.018Z,24.40
2018-05-06T16:48:50.362Z,24.00
2018-05-06T16:51:17.927Z,24.00
2018-05-06T16:53:46.266Z,23.90
2018-05-06T16:56:13.778Z,23.80
2018-05-06T16:58:41.363Z,23.80
2018-05-06T17:01:08.910Z,23.70
2018-05-06T17:03:36.453Z,23.70
2018-05-06T17:06:04.004Z,23.70
2018-05-06T17:08:31.568Z,23.60
2018-05-06T17:10:59.107Z,23.50
2018-05-06T17:13:26.665Z,23.50
2018-05-06T17:15:54.220Z,23.50
2018-05-06T17:18:21.735Z,23.50
2018-05-06T17:20:50.070Z,23.20
2018-05-06T17:23:17.614Z,23.20
2018-05-06T17:25:45.173Z,23.30
2018-05-06T17:28:12.708Z,23.30
2018-05-06T17:30:40.250Z,23.20
2018-05-06T17:33:07.794Z,23.10
2018-05-06T17:35:36.119Z,23.00
2018-05-06T17:38:03.643Z,23.00
2018-05-06T17:40:31.192Z,22.90
2018-05-06T17:42:59.486Z,22.90
2018-05-06T17:45:27.010Z,22.90
2018-05-06T17:47:55.456Z,22.80
2018-05-06T17:50:23.020Z,22.70
2018-05-06T17:52:50.554Z,22.70
2018-05-06T17:55:18.079Z,22.60
2018-05-06T17:57:45.743Z,22.70
2018-05-06T18:00:13.323Z,22.60
2018-05-06T18:02:40.846Z,22.50
2018-05-06T18:05:09.155Z,22.40
2018-05-06T18:07:36.743Z,22.40
2018-05-06T18:10:04.283Z,22.40
2018-05-06T18:12:31.821Z,22.30
2018-05-06T18:15:00.094Z,22.20
2018-05-06T18:17:28.411Z,22.10
2018-05-06T18:19:55.961Z,22.10
2018-05-06T18:22:23.507Z,22.00
2018-05-06T18:24:51.068Z,21.90
2018-05-06T18:27:18.595Z,21.80
2018-05-06T18:29:46.152Z,21.70
2018-05-06T18:32:13.791Z,21.60
2018-05-06T18:34:41.251Z,21.60
2018-05-06T18:37:08.790Z,21.50
2018-05-06T18:39:36.344Z,21.40
2018-05-06T18:42:03.855Z,21.30
2018-05-06T18:44:31.408Z,21.20
2018-05-06T18:46:59.694Z,21.10
2018-05-06T18:49:28.004Z,21.00
2018-05-06T18:51:55.537Z,20.90
2018-05-06T18:54:23.840Z,20.80
2018-05-06T18:56:51.354Z,20.80
2018-05-06T18:59:18.902Z,20.70
2018-05-06T19:01:46.451Z,20.60
2018-05-06T19:04:13.965Z,20.50
2018-05-06T19:06:41.480Z,20.30
2018-05-06T19:09:09.057Z,20.20
2018-05-06T19:11:37.354Z,20.00
2018-05-06T19:14:12.376Z,19.90
2018-05-06T19:16:40.685Z,19.80
2018-05-06T19:19:08.225Z,19.80
2018-05-06T19:21:35.776Z,19.70
2018-05-06T19:24:04.060Z,19.60
2018-05-06T19:26:32.363Z,19.40
2018-05-06T19:28:59.912Z,19.30
2018-05-06T19:31:27.497Z,19.30
2018-05-06T19:33:55.108Z,19.10
2018-05-06T19:36:23.416Z,19.10
2018-05-06T19:38:50.971Z,19.10
2018-05-06T19:41:18.534Z,19.00
2018-05-06T19:43:46.097Z,18.60
2018-05-06T19:46:13.836Z,18.60
2018-05-06T19:48:41.420Z,18.60
2018-05-06T19:51:08.952Z,18.60
2018-05-06T19:53:36.507Z,18.50
2018-05-06T19:56:04.052Z,18.30
2018-05-06T19:58:32.367Z,18.30
2018-05-06T20:01:00.072Z,18.20
2018-05-06T20:03:28.042Z,18.20
2018-05-06T20:05:55.567Z,18.00
2018-05-06T20:08:23.131Z,17.90
2018-05-06T20:10:50.638Z,17.90
2018-05-06T20:13:18.969Z,18.20
2018-05-06T20:15:46.580Z,18.10
2018-05-06T20:18:14.284Z,18.60
2018-05-06T20:20:41.859Z,18.70
2018-05-06T20:23:09.406Z,18.80
2018-05-06T20:25:36.930Z,18.90
2018-05-06T20:28:05.246Z,18.80
2018-05-06T20:30:32.826Z,18.80
2018-05-06T20:33:00.355Z,18.70
2018-05-06T20:35:27.889Z,18.80
2018-05-06T20:37:55.447Z,18.60
2018-05-06T20:40:22.975Z,18.70
2018-05-06T20:42:50.540Z,18.60
2018-05-06T20:45:18.096Z,18.70
2018-05-06T20:47:46.501Z,18.40
2018-05-06T20:50:14.046Z,18.40
2018-05-06T20:52:42.343Z,18.30
2018-05-06T20:55:09.959Z,18.30
2018-05-06T20:57:37.459Z,18.30
2018-05-06T21:00:04.994Z,18.10
2018-05-06T21:02:33.308Z,18.00
2018-05-06T21:05:00.923Z,18.00
2018-05-06T21:07:29.278Z,18.00
2018-05-06T21:09:56.833Z,18.00
2018-05-06T21:12:24.362Z,17.90
2018-05-06T21:14:51.894Z,17.80
2018-05-06T21:17:20.216Z,17.90
2018-05-06T21:19:47.763Z,17.90
2018-05-06T21:22:15.284Z,17.90
2018-05-06T21:24:42.844Z,18.10
2018-05-06T21:27:11.174Z,17.90
2018-05-06T21:29:38.791Z,17.80
2018-05-06T21:32:06.201Z,17.80
2018-05-06T21:34:33.763Z,17.80
2018-05-06T21:37:01.331Z,17.90
2018-05-06T21:39:28.931Z,17.90
2018-05-06T21:41:56.471Z,17.80
2018-05-06T21:44:24.790Z,17.90
2018-05-06T21:46:52.315Z,17.90
2018-05-06T21:49:19.857Z,17.90
2018-05-06T21:51:48.157Z,17.70
2018-05-06T21:54:15.675Z,17.70
2018-05-06T21:56:43.243Z,17.50
2018-05-06T21:59:11.564Z,17.60
2018-05-06T22:01:39.119Z,17.60
2018-05-06T22:04:06.634Z,17.70
2018-05-06T22:06:34.200Z,17.60
2018-05-06T22:09:01.720Z,17.50
2018-05-06T22:11:29.268Z,17.50
2018-05-06T22:13:56.822Z,17.50
2018-05-06T22:16:24.338Z,17.50
2018-05-06T22:18:52.626Z,17.40
2018-05-06T22:21:20.903Z,17.10
2018-05-06T22:23:49.883Z,17.10
2018-05-06T22:26:17.412Z,17.10
2018-05-06T22:28:44.956Z,17.00
2018-05-06T22:31:12.535Z,17.00
2018-05-06T22:33:40.861Z,16.90
2018-05-06T22:36:08.419Z,16.90
2018-05-06T22:38:35.959Z,16.80
2018-05-06T22:41:04.269Z,16.60
2018-05-06T22:43:31.823Z,16.60
2018-05-06T22:45:59.360Z,16.50
2018-05-06T22:48:27.648Z,16.60
2018-05-06T22:50:55.206Z,16.60
2018-05-06T22:53:22.735Z,16.60
2018-05-06T22:55:50.249Z,16.60
2018-05-06T22:58:17.785Z,16.50
2018-05-06T23:00:45.312Z,16.50
2018-05-06T23:03:13.642Z,16.40
2018-05-06T23:05:41.208Z,16.30
2018-05-06T23:08:08.770Z,16.30
2018-05-06T23:10:36.312Z,16.20
2018-05-06T23:13:03.859Z,16.10
2018-05-06T23:15:31.413Z,16.10
2018-05-06T23:17:58.963Z,16.20
2018-05-06T23:20:27.291Z,15.80
2018-05-06T23:22:54.835Z,15.80
2018-05-06T23:25:22.440Z,15.60
2018-05-06T23:27:49.954Z,15.50
2018-05-06T23:30:17.508Z,15.40
2018-05-06T23:32:45.081Z,15.50
2018-05-06T23:35:12.632Z,15.40
2018-05-06T23:37:40.148Z,15.30
2018-05-06T23:40:07.698Z,15.40
2018-05-06T23:42:35.989Z,15.60
2018-05-06T23:45:04.315Z,15.50
2018-05-06T23:47:31.847Z,15.50
2018-05-06T23:49:59.396Z,15.60
2018-05-06T23:52:26.925Z,15.50
2018-05-06T23:54:54.483Z,15.70
2018-05-06T23:57:22.795Z,15.60
2018-05-06T23:59:50.352Z,15.60
